Ana Sayfa
METAR-TAF:

METAR-TAF

Havaalanları :

Front Royal, Virginia, Amerika Birleşik Devletleri

Enlem: 38-55-03N, Boylam: 078-15-12W, yükseklik: 216 m

Güncel hava durumu gözlemi

Rapor saat 18:15 UTC de 22 dakika önce yapıldı.
Sakin rüzgar
Sıcaklık 3°C
Nem 41%
Basınç 1022 hPa
Görüş mesafesi: 16.1 km
Açık gökyüzü

METAR: KFRR 071815Z AUTO 00000KT 10SM CLR 03/M09 A3018 RMK AO1

Saat: 13:37 (18:37 UTC)


TAF: eksik

4.000'den fazla havaalanı için hava durumu gözlemleri ve tahminleri (METAR ve TAF raporları).

Kullanılabilir istasyonlar harita üzerinde sarı ve kırmızı noktalarla gösterilir.

İstasyonun adını görmek için fareyi noktanın üzerinde gezdirin.

Sonrasında hava gözlem ve tahminlerini görmek için tıklayın.

Haritayı değiştirmek için: yaklaştırmak için siyah artı işaretli yeşil düğmeye ve uzaklaştırmak için de eksi işaretli düğmeye hızla tıklayın; bitişik haritalar için yeşil okları kullanın.


METAR-TAF: